Wichita Mid Continent Airport
KICT : rendu visible

Aérodrome :











RETROUVEZ-NOUS SUR...

 
LOGIN :

Register | Disclaimer

   EN    FR    IT 

 















- Airport Elevation : 1333 ft
- IATA code : ICT


KICT - Wichita Mid Continent

CURRENT METAR :
  • 181231Z 35023G30KT 10SM BKN010 BKN018 OVC065 15/13 A2983 RMK AO2 PK WND 36030/1230 T01500133

EXPIRED METARs :
  • 181149Z 21006KT 7SM FEW015 SCT027 BKN036 21/19 A2978 RMK AO2 RAB20E38 P0001
  • 181153Z 22006KT 7SM FEW020 SCT028 BKN038 21/19 A2978 RMK AO2 RAB20E38 SLP072 P0001 60001 70001 T02060194 10217 20200 51020
  • 181053Z 19013G20KT 7SM OVC014 21/19 A2972 RMK AO2 SLP051 T02060189
  • 180953Z 18016KT 8SM OVC019 21/19 A2972 RMK AO2 SLP049 T02060189
  • 180853Z 18014KT 8SM OVC020 21/19 A2973 RMK AO2 SLP053 T02060189 57014
  • 180818Z 18014KT 8SM BKN022 BKN250 20/19 A2974 RMK AO2 T02000189
  • 180753Z 18012KT 10SM FEW040 SCT250 21/19 A2975 RMK AO2 SLP059 T02060189

TAF KICT
Valid from the 18 at 13:00 until the 19 at 12:00 UTC


181238Z 1813/1912 36023G33KT P6SM OVC015
FM182100 01022G30KT P6SM SCT030
FM190100 02010KT P6SM SKC
KZKC FIR / North America





SOURCES & CREDITS :

   NOAA       Earth
Advisory